createdAt,value
2018-06-25T00:02:29.247Z,5.90
2018-06-25T00:04:58.107Z,5.33
2018-06-25T00:07:26.481Z,5.73
2018-06-25T00:09:55.134Z,5.37
2018-06-25T00:12:23.842Z,5.40
2018-06-25T00:14:52.579Z,5.17
2018-06-25T00:17:21.268Z,5.37
2018-06-25T00:19:49.987Z,5.30
2018-06-25T00:22:18.611Z,5.20
2018-06-25T00:24:47.295Z,4.63
2018-06-25T00:27:15.987Z,5.10
2018-06-25T00:29:44.752Z,5.20
2018-06-25T00:32:13.422Z,5.17
2018-06-25T00:34:42.171Z,5.73
2018-06-25T00:37:10.896Z,5.10
2018-06-25T00:39:39.548Z,5.67
2018-06-25T00:42:08.257Z,5.10
2018-06-25T00:44:36.940Z,5.03
2018-06-25T00:47:05.808Z,5.10
2018-06-25T00:49:34.473Z,5.33
2018-06-25T00:52:03.186Z,4.87
2018-06-25T00:54:31.850Z,5.30
2018-06-25T00:57:00.639Z,5.13
2018-06-25T00:59:40.405Z,5.60
2018-06-25T01:02:08.983Z,5.90
2018-06-25T01:04:37.756Z,5.80
2018-06-25T01:07:06.560Z,5.70
2018-06-25T01:09:35.287Z,5.53
2018-06-25T01:12:04.014Z,5.83
2018-06-25T01:14:32.692Z,5.20
2018-06-25T01:17:01.428Z,5.80
2018-06-25T01:19:30.166Z,6.30
2018-06-25T01:21:58.857Z,6.13
2018-06-25T01:24:27.506Z,5.43
2018-06-25T01:26:56.192Z,5.70
2018-06-25T01:29:24.838Z,5.73
2018-06-25T01:31:53.610Z,5.63
2018-06-25T01:34:22.301Z,5.80
2018-06-25T01:36:51.065Z,5.97
2018-06-25T01:39:19.750Z,5.97
2018-06-25T01:42:04.698Z,5.83
2018-06-25T01:44:33.387Z,6.07
2018-06-25T01:47:02.175Z,6.23
2018-06-25T01:49:30.855Z,6.50
2018-06-25T01:51:59.593Z,7.03
2018-06-25T01:54:28.228Z,6.73
2018-06-25T01:56:56.947Z,7.63
2018-06-25T01:59:25.698Z,7.60
2018-06-25T02:01:54.427Z,8.43
2018-06-25T02:04:23.099Z,8.77
2018-06-25T02:06:51.870Z,8.40
2018-06-25T02:09:20.585Z,8.80
2018-06-25T02:11:49.308Z,8.40
2018-06-25T02:14:18.026Z,8.50
2018-06-25T02:16:46.714Z,8.33
2018-06-25T02:19:15.054Z,9.10
2018-06-25T02:21:43.786Z,8.00
2018-06-25T02:24:12.477Z,8.77
2018-06-25T02:26:41.253Z,7.63
2018-06-25T02:29:09.999Z,8.20
2018-06-25T02:31:38.651Z,7.80
2018-06-25T02:34:07.401Z,9.17
2018-06-25T02:36:36.110Z,7.90
2018-06-25T02:39:08.014Z,8.43
2018-06-25T02:41:36.881Z,8.93
2018-06-25T02:44:06.274Z,8.67
2018-06-25T02:46:35.031Z,8.23
2018-06-25T02:49:03.671Z,9.00
2018-06-25T02:51:32.431Z,8.10
2018-06-25T02:54:01.150Z,8.63
2018-06-25T02:56:29.821Z,8.80
2018-06-25T02:58:58.559Z,8.87
2018-06-25T03:01:27.317Z,8.60
2018-06-25T03:03:55.969Z,7.63
2018-06-25T03:06:24.750Z,7.80
2018-06-25T03:08:53.430Z,8.60
2018-06-25T03:11:22.074Z,8.10
2018-06-25T03:13:50.765Z,8.30
2018-06-25T03:16:19.501Z,8.10
2018-06-25T03:18:48.223Z,8.93
2018-06-25T03:21:16.954Z,8.17
2018-06-25T03:23:45.631Z,8.10
2018-06-25T03:26:14.350Z,7.87
2018-06-25T03:28:43.051Z,8.57
2018-06-25T03:31:15.762Z,8.87
2018-06-25T03:33:44.641Z,7.63
2018-06-25T03:36:13.422Z,8.47
2018-06-25T03:38:42.200Z,8.53
2018-06-25T03:41:11.109Z,8.27
2018-06-25T03:43:39.834Z,8.43
2018-06-25T03:46:08.559Z,8.00
2018-06-25T03:48:37.263Z,7.60
2018-06-25T03:51:06.142Z,7.70
2018-06-25T03:53:34.819Z,6.93
2018-06-25T03:56:03.521Z,7.43
2018-06-25T03:58:32.190Z,7.03
2018-06-25T04:01:00.957Z,6.67
2018-06-25T04:03:29.613Z,6.83
2018-06-25T04:05:58.263Z,7.20
2018-06-25T04:08:26.950Z,6.57
2018-06-25T04:10:55.590Z,7.33
2018-06-25T04:13:24.250Z,6.30
2018-06-25T04:15:52.994Z,5.60
2018-06-25T04:18:21.779Z,5.03
2018-06-25T04:20:50.592Z,5.40
2018-06-25T04:23:19.235Z,5.20
2018-06-25T04:25:47.994Z,4.57
2018-06-25T04:28:16.776Z,4.73
2018-06-25T04:30:45.582Z,4.60
2018-06-25T04:33:14.241Z,3.90
2018-06-25T04:35:44.049Z,4.13
2018-06-25T04:38:12.754Z,3.80
2018-06-25T04:40:41.559Z,3.40
2018-06-25T04:43:10.253Z,3.53
2018-06-25T04:45:38.977Z,2.90
2018-06-25T04:48:07.705Z,2.60
2018-06-25T04:50:36.525Z,2.70
2018-06-25T04:53:05.273Z,2.73
2018-06-25T04:55:33.946Z,2.80
2018-06-25T04:58:02.725Z,2.40
2018-06-25T05:00:31.472Z,2.90
2018-06-25T05:03:00.243Z,3.13
2018-06-25T05:05:29.016Z,2.97
2018-06-25T05:07:57.791Z,2.93
2018-06-25T05:10:26.531Z,2.73
2018-06-25T05:12:55.268Z,3.00
2018-06-25T05:15:23.971Z,2.90
2018-06-25T05:17:52.656Z,3.07
2018-06-25T05:20:21.443Z,2.80
2018-06-25T05:22:50.123Z,2.80
2018-06-25T05:25:18.875Z,2.90
2018-06-25T05:27:47.590Z,2.97
2018-06-25T05:30:16.324Z,2.60
2018-06-25T05:32:45.091Z,2.53
2018-06-25T05:35:13.793Z,3.17
2018-06-25T05:37:42.590Z,2.87
2018-06-25T05:40:11.297Z,2.30
2018-06-25T05:42:39.938Z,2.23
2018-06-25T05:45:08.596Z,2.30
2018-06-25T05:47:37.318Z,2.33
2018-06-25T05:50:06.099Z,2.30
2018-06-25T05:52:34.822Z,2.40
2018-06-25T05:55:03.758Z,2.53
2018-06-25T05:57:32.520Z,2.50
2018-06-25T06:00:01.350Z,2.33
2018-06-25T06:02:30.056Z,2.30
2018-06-25T06:04:58.803Z,2.50
2018-06-25T06:07:27.562Z,2.30
2018-06-25T06:09:56.245Z,2.40
2018-06-25T06:12:24.983Z,2.47
2018-06-25T06:14:53.689Z,2.30
2018-06-25T06:17:22.467Z,2.60
2018-06-25T06:19:51.133Z,2.10
2018-06-25T06:22:21.975Z,2.33
2018-06-25T06:24:50.293Z,2.13
2018-06-25T06:27:19.007Z,2.10
2018-06-25T06:29:47.742Z,2.10
2018-06-25T06:32:16.490Z,2.50
2018-06-25T06:34:45.101Z,2.20
2018-06-25T06:37:13.784Z,2.20
2018-06-25T06:39:42.514Z,2.40
2018-06-25T06:42:11.219Z,2.40
2018-06-25T06:44:39.964Z,2.30
2018-06-25T06:47:08.631Z,2.40
2018-06-25T06:49:37.317Z,2.23
2018-06-25T06:52:06.134Z,2.27
2018-06-25T06:54:34.930Z,2.60
2018-06-25T06:57:03.826Z,2.77
2018-06-25T06:59:32.537Z,2.17
2018-06-25T07:02:01.226Z,2.00
2018-06-25T07:04:29.861Z,2.20
2018-06-25T07:06:58.579Z,2.20
2018-06-25T07:09:27.280Z,2.60
2018-06-25T07:11:56.046Z,2.70
2018-06-25T07:14:24.750Z,2.53
2018-06-25T07:16:53.454Z,2.57
2018-06-25T07:19:22.135Z,2.63
2018-06-25T07:21:50.863Z,2.20
2018-06-25T07:24:19.542Z,2.23
2018-06-25T07:26:48.262Z,2.30
2018-06-25T07:29:17.097Z,2.20
2018-06-25T07:31:45.802Z,2.40
2018-06-25T07:34:14.555Z,2.50
2018-06-25T07:36:43.314Z,2.30
2018-06-25T07:39:12.023Z,2.20
2018-06-25T07:41:40.746Z,2.40
2018-06-25T07:44:09.361Z,2.30
2018-06-25T07:46:37.981Z,2.70
2018-06-25T07:49:06.738Z,2.40
2018-06-25T07:51:35.398Z,2.40
2018-06-25T07:54:04.075Z,2.40
2018-06-25T07:56:32.707Z,2.10
2018-06-25T07:59:01.436Z,2.13
2018-06-25T08:01:30.198Z,2.20
2018-06-25T08:03:58.881Z,2.33
2018-06-25T08:06:27.604Z,2.37
2018-06-25T08:08:56.275Z,2.00
2018-06-25T08:11:24.994Z,2.10
2018-06-25T08:13:53.674Z,2.20
2018-06-25T08:16:23.173Z,2.30
2018-06-25T08:18:51.887Z,1.90
2018-06-25T08:21:20.594Z,2.37
2018-06-25T08:23:49.348Z,2.17
2018-06-25T08:26:18.095Z,1.80
2018-06-25T08:28:46.989Z,2.00
2018-06-25T08:31:15.676Z,1.80
2018-06-25T08:33:44.389Z,2.07
2018-06-25T08:36:13.127Z,2.20
2018-06-25T08:38:41.805Z,1.80
2018-06-25T08:41:10.594Z,1.90
2018-06-25T08:43:39.304Z,2.03
2018-06-25T08:46:07.998Z,1.80
2018-06-25T08:48:36.811Z,2.20
2018-06-25T08:51:05.560Z,1.87
2018-06-25T08:53:34.377Z,1.80
2018-06-25T08:56:03.172Z,1.80
2018-06-25T08:58:31.937Z,1.77
2018-06-25T09:01:00.606Z,1.90
2018-06-25T09:03:29.275Z,1.60
2018-06-25T09:05:57.886Z,1.60
2018-06-25T09:08:26.634Z,1.90
2018-06-25T09:10:55.388Z,2.13
2018-06-25T09:13:24.099Z,2.20
2018-06-25T09:15:52.818Z,2.17
2018-06-25T09:18:21.568Z,2.30
2018-06-25T09:20:50.231Z,2.20
2018-06-25T09:23:19.009Z,2.03
2018-06-25T09:25:47.890Z,2.20
2018-06-25T09:28:16.578Z,2.00
2018-06-25T09:30:45.278Z,1.90
2018-06-25T09:33:14.078Z,1.90
2018-06-25T09:35:42.756Z,2.17
2018-06-25T09:38:11.460Z,2.00
2018-06-25T09:40:40.239Z,2.17
2018-06-25T09:43:08.950Z,2.17
2018-06-25T09:45:37.738Z,1.80
2018-06-25T09:48:06.745Z,1.70
2018-06-25T09:50:35.438Z,1.87
2018-06-25T09:53:04.134Z,2.00
2018-06-25T09:55:32.855Z,1.97
2018-06-25T09:58:01.584Z,2.00
2018-06-25T10:00:35.619Z,2.00
2018-06-25T10:03:03.936Z,1.90
2018-06-25T10:05:32.614Z,1.67
2018-06-25T10:08:01.374Z,1.70
2018-06-25T10:10:30.091Z,1.90
2018-06-25T10:12:58.866Z,2.00
2018-06-25T10:15:27.616Z,2.20
2018-06-25T10:17:56.439Z,1.70
2018-06-25T10:20:25.201Z,2.00
2018-06-25T10:22:53.941Z,1.70
2018-06-25T10:25:22.808Z,2.00
2018-06-25T10:27:51.514Z,2.07
2018-06-25T10:30:20.313Z,2.00
2018-06-25T10:32:49.094Z,1.90
2018-06-25T10:35:17.838Z,2.20
2018-06-25T10:37:46.561Z,2.07
2018-06-25T10:40:15.349Z,1.60
2018-06-25T10:42:44.089Z,1.60
2018-06-25T10:45:12.831Z,1.60
2018-06-25T10:47:41.578Z,1.60
2018-06-25T10:50:10.333Z,1.90
2018-06-25T10:52:38.997Z,2.50
2018-06-25T10:55:08.166Z,1.60
2018-06-25T10:57:36.826Z,1.70
2018-06-25T11:00:06.619Z,1.70
2018-06-25T11:02:35.235Z,1.70
2018-06-25T11:05:04.043Z,1.70
2018-06-25T11:07:32.853Z,1.90
2018-06-25T11:10:01.464Z,1.80
2018-06-25T11:12:30.174Z,1.70
2018-06-25T11:14:58.898Z,2.37
2018-06-25T11:17:27.544Z,2.23
2018-06-25T11:19:56.219Z,1.87
2018-06-25T11:22:24.914Z,1.57
2018-06-25T11:24:53.491Z,1.40
2018-06-25T11:27:22.309Z,1.40
2018-06-25T11:29:50.927Z,1.43
2018-06-25T11:32:19.647Z,1.20
2018-06-25T11:34:48.348Z,1.40
2018-06-25T11:37:16.694Z,1.23
2018-06-25T11:39:45.486Z,1.20
2018-06-25T11:42:14.264Z,1.50
2018-06-25T11:44:42.946Z,1.20
2018-06-25T11:47:11.549Z,1.20
2018-06-25T11:49:40.336Z,1.33
2018-06-25T11:52:09.034Z,1.30
2018-06-25T11:54:37.810Z,1.30
2018-06-25T11:57:06.573Z,1.20
2018-06-25T11:59:35.348Z,1.30
2018-06-25T12:02:04.151Z,1.43
2018-06-25T12:04:32.779Z,1.47
2018-06-25T12:07:01.488Z,2.50
2018-06-25T12:09:30.213Z,2.50
2018-06-25T12:11:59.024Z,2.10
2018-06-25T12:14:27.901Z,2.00
2018-06-25T12:16:56.695Z,1.97
2018-06-25T12:19:25.381Z,1.90
2018-06-25T12:21:54.061Z,1.87
2018-06-25T12:24:22.842Z,1.70
2018-06-25T12:26:51.550Z,1.60
2018-06-25T12:29:20.307Z,1.50
2018-06-25T12:31:49.120Z,1.43
2018-06-25T12:34:17.884Z,1.47
2018-06-25T12:36:46.621Z,1.60
2018-06-25T12:39:15.331Z,1.47
2018-06-25T12:41:44.073Z,1.17
2018-06-25T12:44:12.718Z,1.33
2018-06-25T12:46:41.464Z,1.20
2018-06-25T12:49:10.306Z,1.10
2018-06-25T12:51:39.095Z,1.03
2018-06-25T12:54:07.918Z,1.10
2018-06-25T12:56:36.619Z,1.00
2018-06-25T12:59:05.432Z,1.03
2018-06-25T13:01:34.065Z,1.20
2018-06-25T13:04:02.915Z,0.83
2018-06-25T13:06:31.664Z,1.00
2018-06-25T13:09:01.007Z,0.97
2018-06-25T13:11:29.594Z,0.90
2018-06-25T13:13:58.346Z,0.90
2018-06-25T13:16:27.042Z,0.93
2018-06-25T13:18:55.747Z,0.90
2018-06-25T13:21:24.450Z,0.90
2018-06-25T13:23:53.202Z,1.10
2018-06-25T13:26:21.891Z,1.10
2018-06-25T13:28:50.580Z,0.90
2018-06-25T13:31:19.392Z,0.90
2018-06-25T13:33:48.490Z,0.93
2018-06-25T13:36:17.505Z,1.00
2018-06-25T13:38:46.297Z,1.20
2018-06-25T13:41:14.910Z,0.93
2018-06-25T13:43:43.679Z,1.10
2018-06-25T13:46:12.472Z,0.90
2018-06-25T13:48:41.192Z,1.10
2018-06-25T13:51:10.044Z,1.10
2018-06-25T13:53:38.889Z,1.13
2018-06-25T13:56:08.237Z,1.30
2018-06-25T13:58:36.981Z,1.10
2018-06-25T14:01:27.004Z,1.20
2018-06-25T14:03:55.581Z,1.80
2018-06-25T14:06:24.406Z,1.30
2018-06-25T14:08:53.075Z,1.00
2018-06-25T14:11:21.710Z,1.33
2018-06-25T14:13:50.350Z,1.07
2018-06-25T14:16:19.090Z,1.00
2018-06-25T14:18:47.715Z,1.00
2018-06-25T14:21:16.435Z,1.10
2018-06-25T14:23:50.285Z,1.27
2018-06-25T14:26:19.011Z,1.10
2018-06-25T14:28:47.791Z,1.07
2018-06-25T14:31:21.648Z,1.20
2018-06-25T14:34:07.078Z,0.93
2018-06-25T14:36:35.771Z,1.00
2018-06-25T14:39:07.106Z,1.20
2018-06-25T14:41:35.875Z,1.00
2018-06-25T14:44:05.620Z,1.00
2018-06-25T14:46:34.386Z,1.00
2018-06-25T14:49:03.175Z,1.20
2018-06-25T14:51:48.698Z,1.07
2018-06-25T14:54:17.453Z,1.23
2018-06-25T14:57:06.356Z,0.90
2018-06-25T14:59:35.059Z,1.00
2018-06-25T15:02:03.950Z,1.43
2018-06-25T15:04:32.590Z,1.10
2018-06-25T15:07:01.283Z,1.20
2018-06-25T15:09:30.029Z,1.20
2018-06-25T15:11:58.808Z,1.20
2018-06-25T15:14:27.125Z,1.27
2018-06-25T15:16:55.784Z,1.20
2018-06-25T15:19:24.491Z,1.20
2018-06-25T15:21:53.232Z,1.10
2018-06-25T15:24:21.926Z,1.20
2018-06-25T15:26:50.676Z,1.30
2018-06-25T15:29:19.340Z,1.30
2018-06-25T15:31:48.076Z,1.40
2018-06-25T15:34:16.857Z,1.20
2018-06-25T15:36:45.476Z,1.17
2018-06-25T15:39:14.310Z,1.10
2018-06-25T15:41:43.009Z,1.10
2018-06-25T15:44:11.687Z,1.20
2018-06-25T15:46:40.324Z,1.30
2018-06-25T15:49:09.128Z,1.00
2018-06-25T15:51:37.825Z,1.00
2018-06-25T15:54:06.731Z,1.07
2018-06-25T15:56:35.451Z,1.27
2018-06-25T15:59:04.141Z,1.10
2018-06-25T16:01:32.840Z,1.00
2018-06-25T16:04:01.540Z,1.00
2018-06-25T16:06:30.275Z,1.13
2018-06-25T16:08:59.022Z,1.20
2018-06-25T16:11:27.790Z,1.30
2018-06-25T16:13:56.440Z,1.40
2018-06-25T16:16:25.195Z,1.33
2018-06-25T16:18:53.868Z,1.20
2018-06-25T16:21:22.664Z,1.10
2018-06-25T16:23:51.319Z,1.30
2018-06-25T16:26:20.004Z,1.30
2018-06-25T16:28:48.682Z,1.20
2018-06-25T16:31:17.331Z,1.27
2018-06-25T16:33:46.055Z,1.20
2018-06-25T16:36:14.850Z,1.30
2018-06-25T16:38:43.554Z,1.30
2018-06-25T16:41:12.249Z,1.20
2018-06-25T16:43:41.043Z,1.27
2018-06-25T16:46:09.754Z,1.20
2018-06-25T16:48:38.594Z,1.37
2018-06-25T16:51:07.299Z,1.30
2018-06-25T16:53:35.961Z,1.33
2018-06-25T16:56:04.816Z,1.53
2018-06-25T16:58:33.562Z,1.40
2018-06-25T17:01:02.398Z,1.60
2018-06-25T17:03:31.260Z,1.60
2018-06-25T17:06:00.100Z,1.60
2018-06-25T17:08:28.854Z,1.80
2018-06-25T17:10:58.196Z,1.53
2018-06-25T17:13:26.819Z,2.40
2018-06-25T17:15:55.558Z,2.00
2018-06-25T17:18:25.361Z,1.90
2018-06-25T17:20:54.075Z,2.03
2018-06-25T17:23:22.774Z,1.97
2018-06-25T17:25:51.436Z,2.10
2018-06-25T17:28:20.155Z,1.90
2018-06-25T17:30:48.929Z,2.00
2018-06-25T17:33:17.553Z,2.13
2018-06-25T17:35:51.452Z,2.17
2018-06-25T17:38:20.083Z,2.17
2018-06-25T17:40:48.960Z,2.00
2018-06-25T17:43:17.650Z,2.17
2018-06-25T17:45:46.414Z,2.27
2018-06-25T17:48:15.297Z,2.23
2018-06-25T17:50:55.027Z,2.40
2018-06-25T17:53:23.789Z,2.13
2018-06-25T17:55:52.615Z,2.20
2018-06-25T17:58:21.392Z,2.20
2018-06-25T18:00:50.615Z,2.40
2018-06-25T18:03:19.304Z,2.07
2018-06-25T18:05:50.218Z,2.23
2018-06-25T18:08:19.050Z,2.40
2018-06-25T18:10:51.114Z,2.20
2018-06-25T18:13:20.587Z,2.17
2018-06-25T18:15:49.422Z,2.27
2018-06-25T18:18:18.163Z,2.00
2018-06-25T18:20:51.084Z,2.20
2018-06-25T18:23:19.866Z,2.10
2018-06-25T18:26:02.282Z,2.30
2018-06-25T18:28:51.141Z,1.80
2018-06-25T18:31:20.052Z,2.40
2018-06-25T18:33:48.907Z,2.23
2018-06-25T18:36:29.503Z,2.40
2018-06-25T18:38:58.203Z,2.37
2018-06-25T18:41:27.050Z,2.30
2018-06-25T18:43:55.824Z,2.30
2018-06-25T18:46:24.541Z,2.40
2018-06-25T18:51:58.439Z,2.30
2018-06-25T18:54:27.157Z,2.30
2018-06-25T18:56:55.838Z,2.50
2018-06-25T18:59:24.573Z,2.53
2018-06-25T19:01:53.350Z,2.57
2018-06-25T19:04:28.133Z,2.40
2018-06-25T19:06:56.961Z,2.23
2018-06-25T19:09:25.731Z,2.30
2018-06-25T19:11:54.424Z,2.50
2018-06-25T19:14:23.336Z,2.80
2018-06-25T19:16:52.153Z,2.80
2018-06-25T19:19:20.888Z,2.63
2018-06-25T19:21:49.677Z,2.80
2018-06-25T19:24:18.408Z,2.87
2018-06-25T19:26:47.168Z,2.77
2018-06-25T19:29:15.871Z,2.70
2018-06-25T19:32:04.228Z,2.77
2018-06-25T19:37:25.752Z,2.73
2018-06-25T19:39:54.538Z,2.30
2018-06-25T19:42:23.241Z,2.40
2018-06-25T19:45:05.194Z,2.90
2018-06-25T19:47:45.645Z,2.40
2018-06-25T19:50:14.419Z,2.40
2018-06-25T19:52:43.179Z,2.80
2018-06-25T19:55:11.839Z,2.80
2018-06-25T19:57:40.729Z,2.53
2018-06-25T20:00:28.147Z,2.90
2018-06-25T20:02:56.796Z,2.80
2018-06-25T20:05:25.551Z,2.73
2018-06-25T20:07:54.213Z,3.03
2018-06-25T20:10:23.010Z,2.77
2018-06-25T20:12:51.746Z,2.87
2018-06-25T20:15:20.558Z,2.80
2018-06-25T20:17:49.294Z,2.73
2018-06-25T20:20:18.118Z,2.47
2018-06-25T20:22:46.838Z,2.57
2018-06-25T20:25:15.490Z,2.50
2018-06-25T20:27:44.132Z,2.67
2018-06-25T20:30:12.776Z,2.47
2018-06-25T20:32:41.514Z,2.50
2018-06-25T20:35:10.526Z,2.73
2018-06-25T20:37:39.299Z,2.80
2018-06-25T20:40:08.055Z,2.50
2018-06-25T20:42:36.717Z,2.50
2018-06-25T20:45:05.550Z,2.87
2018-06-25T20:47:34.349Z,2.70
2018-06-25T20:50:03.028Z,2.73
2018-06-25T20:52:31.783Z,2.90
2018-06-25T20:55:00.657Z,2.50
2018-06-25T20:57:29.429Z,2.70
2018-06-25T20:59:58.157Z,2.43
2018-06-25T21:02:26.878Z,3.00
2018-06-25T21:04:55.649Z,2.60
2018-06-25T21:07:24.375Z,2.50
2018-06-25T21:09:53.045Z,3.00
2018-06-25T21:12:21.846Z,2.80
2018-06-25T21:14:50.801Z,2.70
2018-06-25T21:17:19.543Z,2.77
2018-06-25T21:19:48.254Z,2.70
2018-06-25T21:22:17.027Z,2.50
2018-06-25T21:24:45.751Z,3.33
2018-06-25T21:27:14.544Z,2.87
2018-06-25T21:29:43.280Z,2.60
2018-06-25T21:32:12.013Z,2.80
2018-06-25T21:34:40.721Z,3.00
2018-06-25T21:37:09.568Z,2.90
2018-06-25T21:39:38.215Z,2.83
2018-06-25T21:42:07.029Z,2.60
2018-06-25T21:44:35.757Z,2.90
2018-06-25T21:47:05.144Z,2.80
2018-06-25T21:49:33.831Z,3.03
2018-06-25T21:52:02.520Z,3.07
2018-06-25T21:54:31.208Z,2.90
2018-06-25T21:56:59.967Z,2.90
2018-06-25T21:59:28.718Z,2.73
2018-06-25T22:01:57.692Z,2.60
2018-06-25T22:04:27.629Z,2.97
2018-06-25T22:06:56.635Z,2.50
2018-06-25T22:09:25.383Z,2.80
2018-06-25T22:11:54.161Z,2.80
2018-06-25T22:14:23.735Z,2.40
2018-06-25T22:16:52.529Z,2.83
2018-06-25T22:19:21.157Z,2.60
2018-06-25T22:21:49.834Z,3.03
2018-06-25T22:24:18.549Z,2.53
2018-06-25T22:26:47.252Z,2.57
2018-06-25T22:29:15.961Z,3.10
2018-06-25T22:31:44.654Z,3.23
2018-06-25T22:34:13.423Z,2.83
2018-06-25T22:36:42.095Z,2.60
2018-06-25T22:39:12.202Z,2.50
2018-06-25T22:41:41.817Z,2.57
2018-06-25T22:44:14.830Z,2.63
2018-06-25T22:46:44.252Z,2.47
2018-06-25T22:49:12.957Z,3.20
2018-06-25T22:51:41.674Z,2.30
2018-06-25T22:54:10.432Z,2.77
2018-06-25T22:56:39.344Z,3.00
2018-06-25T22:59:07.993Z,2.83
2018-06-25T23:01:36.731Z,2.90
2018-06-25T23:04:05.438Z,2.97
2018-06-25T23:06:34.145Z,2.67
2018-06-25T23:09:02.891Z,2.70
2018-06-25T23:11:31.680Z,2.70
2018-06-25T23:14:00.330Z,2.57
2018-06-25T23:16:29.042Z,2.70
2018-06-25T23:18:57.795Z,2.67
2018-06-25T23:21:26.562Z,2.90
2018-06-25T23:23:55.288Z,2.73
2018-06-25T23:26:24.478Z,3.00
2018-06-25T23:28:53.193Z,2.80
2018-06-25T23:31:21.854Z,2.60
2018-06-25T23:33:50.561Z,2.77
2018-06-25T23:36:19.268Z,3.10
2018-06-25T23:38:47.972Z,2.60
2018-06-25T23:41:16.699Z,2.77
2018-06-25T23:43:45.499Z,2.80
2018-06-25T23:46:14.200Z,3.10
2018-06-25T23:48:42.958Z,3.60
2018-06-25T23:51:11.778Z,4.47
2018-06-25T23:53:40.448Z,4.30
2018-06-25T23:56:09.098Z,4.33
2018-06-25T23:58:37.303Z,3.73
